METAR UND TAF INFORMATION
EDMA 161120Z 24006KT 9999 -RA FEW020 BKN044 20/17 Q1016

 FLUGHAFENKARTE

 RUNWAY INFORMATION
Runway 07 Runway length 4199 ft Runway width 98 ft
Runway elevation 1510 ft Runway displaced threshold 0 ft Runway heading 71
Runway 25 Runway length 4199 ft Runway width 98 ft
Runway elevation 1515 ft Runway displaced threshold 0 ft Runway heading 251
Runway 07L Runway length 3325 ft Runway width 100 ft
Runway elevation 0 ft Runway displaced threshold 0 ft Runway heading 72
Runway 25R Runway length 3325 ft Runway width 100 ft
Runway elevation 0 ft Runway displaced threshold 0 ft Runway heading 252

 AIRPORT FREQUENCIES
Type ATIS Name ATIS Frequency 124.575 MHZ
Type INFO Name MUNCHEN IN Frequency 120.65 MHZ
Type RDR Name MUNCHEN RA Frequency 128.25 MHZ
Type TWR Name TWR Frequency 124.975 MHZ

 AIRPORT NEAR NAVIGATION AIDS
Type NDB Name Augsburg Frequency 318 KHZ
Type DME Name Augsburg Frequency 115900 KHZ